Time;durP1;ratioP1;P1;durP2;ratioP2;P2;SDS_P1;SDS_P2;PMS_P1;PMS_P2;Temp;Humidity;BMP_temperature;BMP_pressure;BME280_temperature;BME280_humidity;BME280_pressure;Samples;Min_cycle;Max_cycle;Signal;HPM_P1;HPM_P2
2022/05/19 00:00:16;;;;;;;20.08;17.70;;;16.50;99.90;;;;;;4938571;29;20156;-78
2022/05/19 00:02:42;;;;;;;19.98;16.73;;;16.40;99.90;;;;;;4922701;29;20035;-78
2022/05/19 00:05:08;;;;;;;19.27;16.58;;;16.40;99.90;;;;;;4922783;28;20050;-78
2022/05/19 00:07:34;;;;;;;19.08;16.10;;;16.40;99.90;;;;;;4922525;28;20070;-78
2022/05/19 00:10:00;;;;;;;20.02;15.63;;;16.40;99.90;;;;;;4923358;29;20137;-78
2022/05/19 00:12:25;;;;;;;20.08;16.95;;;16.40;99.90;;;;;;4922773;29;20493;-78
2022/05/19 00:14:51;;;;;;;21.35;17.85;;;16.40;99.90;;;;;;4938015;28;20059;-78
2022/05/19 00:17:18;;;;;;;20.38;17.13;;;16.40;99.90;;;;;;4922728;29;20038;-78
2022/05/19 00:19:44;;;;;;;22.10;17.10;;;16.30;99.90;;;;;;4921365;28;20070;-78
2022/05/19 00:22:11;;;;;;;20.40;17.10;;;16.30;99.90;;;;;;4922210;29;20035;-78
2022/05/19 00:24:37;;;;;;;17.77;15.88;;;16.20;99.90;;;;;;4937920;28;20494;-78
2022/05/19 00:27:03;;;;;;;18.02;14.95;;;16.30;99.90;;;;;;4938245;29;20039;-78
2022/05/19 00:29:29;;;;;;;17.30;14.93;;;16.10;99.90;;;;;;4921689;29;20343;-78
2022/05/19 00:32:03;;;;;;;17.58;14.73;;;16.10;99.90;;;;;;4937924;29;20083;-78
2022/05/19 00:34:28;;;;;;;18.17;15.38;;;16.00;99.90;;;;;;4937791;28;20051;-78
2022/05/19 00:37:01;;;;;;;18.75;15.65;;;15.90;99.90;;;;;;4922122;29;20468;-78
2022/05/19 00:39:30;;;;;;;;;;;15.80;99.90;;;;;;4922125;29;20107;-78
2022/05/19 00:44:43;;;;;;;18.63;16.33;;;15.60;99.90;;;;;;4953822;28;20062;-78
2022/05/19 00:47:19;;;;;;;20.05;17.55;;;15.50;99.90;;;;;;4937521;28;20054;-78
2022/05/19 00:49:45;;;;;;;20.70;18.23;;;15.50;99.90;;;;;;4922050;29;20442;-78
2022/05/19 00:52:19;;;;;;;22.95;18.75;;;15.50;99.90;;;;;;4921740;29;20039;-79
2022/05/19 00:54:50;;;;;;;21.35;19.05;;;15.40;99.90;;;;;;4937389;28;20054;-78
2022/05/19 00:57:23;;;;;;;23.73;20.42;;;15.50;99.90;;;;;;4938142;28;20426;-78
2022/05/19 00:59:56;;;;;;;25.83;21.13;;;15.40;99.90;;;;;;4921677;29;20078;-78
2022/05/19 01:02:26;;;;;;;22.80;20.05;;;15.40;99.90;;;;;;4922465;29;20398;-78
2022/05/19 01:05:14;;;;;;;23.70;20.73;;;15.50;99.90;;;;;;4922049;28;20050;-78
2022/05/19 01:08:00;;;;;;;23.80;19.83;;;15.40;99.90;;;;;;4921395;28;20046;-79
2022/05/19 01:10:29;;;;;;;24.35;20.08;;;15.50;99.90;;;;;;4937704;29;20062;-78
2022/05/19 01:12:54;;;;;;;24.73;21.52;;;15.50;99.90;;;;;;4937685;29;20054;-78
2022/05/19 01:15:22;;;;;;;24.27;20.98;;;15.50;99.90;;;;;;4937622;29;20050;-78
2022/05/19 01:17:49;;;;;;;23.90;20.58;;;15.50;99.90;;;;;;4936719;29;20079;-80
2022/05/19 01:20:21;;;;;;;25.85;22.33;;;15.50;99.90;;;;;;4922801;28;20048;-79
2022/05/19 01:23:04;;;;;;;24.35;21.80;;;15.50;99.90;;;;;;4922810;29;20103;-79
2022/05/19 01:25:56;;;;;;;23.97;21.13;;;15.50;99.90;;;;;;4937772;29;20186;-78
2022/05/19 01:28:22;;;;;;;26.35;21.60;;;15.50;99.90;;;;;;4937965;29;20179;-79
2022/05/19 01:30:50;;;;;;;23.73;21.00;;;15.50;99.90;;;;;;4922948;28;20102;-78
2022/05/19 01:33:16;;;;;;;26.15;21.45;;;15.50;99.90;;;;;;4929288;29;20054;-79
2022/05/19 01:35:42;;;;;;;24.52;21.55;;;15.40;99.90;;;;;;4944272;29;20506;-79
2022/05/19 01:38:24;;;;;;;25.55;21.80;;;15.40;99.90;;;;;;4960462;28;20050;-79
2022/05/19 01:41:28;;;;;;;24.90;21.20;;;15.40;99.90;;;;;;4928488;29;20099;-79
2022/05/19 01:44:04;;;;;;;;;;;15.40;99.90;;;;;;4961707;28;20039;-78
2022/05/19 01:46:39;;;;;;;23.80;20.88;;;15.30;99.90;;;;;;4961904;28;19919;-78
2022/05/19 01:49:07;;;;;;;27.58;22.23;;;15.30;99.90;;;;;;4944537;29;20047;-78
2022/05/19 01:51:40;;;;;;;24.48;21.30;;;15.40;99.90;;;;;;4944532;28;20114;-79
2022/05/19 01:54:41;;;;;;;25.20;21.92;;;15.30;99.90;;;;;;4929272;29;20039;-78
2022/05/19 01:57:10;;;;;;;28.63;21.48;;;15.40;99.90;;;;;;4945246;28;20047;-78
2022/05/19 01:59:54;;;;;;;28.20;22.75;;;15.40;99.90;;;;;;4953369;28;20033;-78
2022/05/19 02:02:31;;;;;;;24.42;21.83;;;15.30;99.90;;;;;;4957095;29;20051;-78
2022/05/19 02:05:18;;;;;;;25.30;21.63;;;15.30;99.90;;;;;;4948996;28;20058;-78
2022/05/19 02:07:48;;;;;;;29.10;21.83;;;15.30;99.90;;;;;;4948439;29;20540;-78
2022/05/19 02:10:23;;;;;;;24.55;21.50;;;15.30;99.90;;;;;;4948110;28;20429;-78
2022/05/19 02:12:50;;;;;;;27.67;22.40;;;15.30;99.90;;;;;;4933097;29;20042;-78
2022/05/19 02:15:20;;;;;;;27.05;22.20;;;15.30;99.90;;;;;;4932975;29;20046;-78
2022/05/19 02:17:48;;;;;;;27.20;23.30;;;15.30;99.90;;;;;;4931957;29;20046;-79
2022/05/19 02:20:18;;;;;;;27.20;22.50;;;15.20;99.90;;;;;;4931865;29;20074;-78
2022/05/19 02:22:44;;;;;;;30.38;22.88;;;15.20;99.90;;;;;;4931916;28;20089;-79
2022/05/19 02:25:40;;;;;;;26.23;22.15;;;15.30;99.90;;;;;;4947971;29;20035;-79
2022/05/19 02:28:11;;;;;;;28.45;24.20;;;15.20;99.90;;;;;;4931045;29;20043;-78
2022/05/19 02:30:39;;;;;;;29.05;23.40;;;15.20;99.90;;;;;;4946847;29;20134;-79
2022/05/19 02:33:06;;;;;;;27.70;22.88;;;15.20;99.90;;;;;;4931049;28;20047;-79
2022/05/19 02:35:32;;;;;;;29.58;25.23;;;15.20;99.90;;;;;;4930957;28;20043;-78
2022/05/19 02:37:59;;;;;;;28.35;23.92;;;15.20;99.90;;;;;;4930489;29;20043;-78
2022/05/19 02:40:29;;;;;;;27.80;23.98;;;15.20;99.90;;;;;;4931156;28;20097;-77
2022/05/19 02:42:56;;;;;;;30.63;24.85;;;15.20;99.90;;;;;;4926306;29;20043;-77
2022/05/19 02:45:23;;;;;;;31.10;24.25;;;15.20;99.90;;;;;;4940810;29;20043;-78
2022/05/19 02:47:49;;;;;;;31.65;25.80;;;15.30;99.90;;;;;;4924502;28;20051;-78
2022/05/19 02:50:17;;;;;;;33.17;26.25;;;15.40;99.90;;;;;;4925134;29;20046;-77
2022/05/19 02:52:44;;;;;;;28.55;25.45;;;15.40;99.90;;;;;;4924485;29;20049;-77
2022/05/19 02:55:10;;;;;;;29.27;26.15;;;15.50;99.90;;;;;;4924249;29;20516;-77
2022/05/19 02:57:36;;;;;;;32.63;26.95;;;15.50;99.90;;;;;;4940912;29;20070;-77
2022/05/19 03:00:06;;;;;;;32.03;26.77;;;15.50;99.90;;;;;;4924541;29;20406;-77
2022/05/19 03:02:32;;;;;;;35.22;27.02;;;15.60;99.90;;;;;;4925521;28;20078;-78
2022/05/19 03:04:58;;;;;;;32.15;26.67;;;15.60;99.90;;;;;;4925335;29;20379;-78
2022/05/19 03:07:24;;;;;;;31.70;26.33;;;15.50;99.90;;;;;;4941272;29;20302;-78
2022/05/19 03:09:50;;;;;;;33.03;26.05;;;15.60;99.90;;;;;;4941204;29;20050;-78
2022/05/19 03:12:16;;;;;;;32.35;27.30;;;15.60;99.90;;;;;;4941783;29;20494;-78
2022/05/19 03:14:42;;;;;;;32.97;26.25;;;15.50;99.90;;;;;;4925362;28;20043;-79
2022/05/19 03:17:09;;;;;;;32.60;27.08;;;15.50;99.90;;;;;;4925389;28;20260;-78
2022/05/19 03:19:36;;;;;;;32.20;27.35;;;15.50;99.90;;;;;;4942077;29;20418;-78
2022/05/19 03:22:03;;;;;;;35.55;27.85;;;15.40;99.90;;;;;;4925618;29;20514;-78
2022/05/19 03:24:29;;;;;;;31.52;26.20;;;15.50;99.90;;;;;;4925804;29;20507;-78
2022/05/19 03:26:55;;;;;;;29.55;25.45;;;15.50;99.90;;;;;;4925138;29;20047;-78
2022/05/19 03:29:21;;;;;;;30.60;26.67;;;15.40;99.90;;;;;;4941010;28;20046;-78
2022/05/19 03:31:47;;;;;;;31.42;25.85;;;15.40;99.90;;;;;;4925094;29;20094;-78
2022/05/19 03:34:16;;;;;;;33.95;28.33;;;15.30;99.90;;;;;;4959131;28;20040;-78
2022/05/19 03:36:46;;;;;;;32.28;27.83;;;15.20;99.90;;;;;;4940679;29;20141;-78
2022/05/19 03:39:12;;;;;;;34.47;27.95;;;15.20;99.90;;;;;;4940886;29;20050;-78
2022/05/19 03:41:37;;;;;;;34.78;28.55;;;15.20;99.90;;;;;;4925265;29;20036;-78
2022/05/19 03:44:03;;;;;;;35.55;29.75;;;15.20;99.90;;;;;;4940843;28;20044;-77
2022/05/19 03:46:29;;;;;;;37.08;30.23;;;15.20;99.90;;;;;;4925910;29;20077;-78
2022/05/19 03:48:55;;;;;;;33.33;27.38;;;15.20;99.90;;;;;;4925227;29;20043;-78
2022/05/19 03:51:29;;;;;;;34.58;28.73;;;15.20;99.90;;;;;;4925611;29;20051;-78
2022/05/19 03:53:56;;;;;;;35.97;29.98;;;15.20;99.90;;;;;;4941077;28;20058;-78
2022/05/19 03:56:23;;;;;;;35.05;29.75;;;15.20;99.90;;;;;;4941342;29;20401;-78
2022/05/19 03:58:50;;;;;;;32.25;28.13;;;15.20;99.90;;;;;;4930153;28;20382;-78
2022/05/19 04:01:17;;;;;;;37.75;31.45;;;15.10;99.90;;;;;;4933621;29;20066;-77
2022/05/19 04:03:43;;;;;;;32.53;29.00;;;15.10;99.90;;;;;;4933218;29;20047;-78
2022/05/19 04:06:10;;;;;;;35.80;30.10;;;15.20;99.90;;;;;;4925675;29;20098;-78
2022/05/19 04:08:35;;;;;;;39.85;33.22;;;15.20;99.90;;;;;;4922740;29;20094;-78
2022/05/19 04:11:02;;;;;;;40.22;32.65;;;15.10;99.90;;;;;;4938126;28;20510;-78
2022/05/19 04:13:28;;;;;;;41.45;33.58;;;15.20;99.90;;;;;;4923127;29;20039;-78
2022/05/19 04:15:54;;;;;;;39.97;33.78;;;15.40;99.90;;;;;;4922134;29;20047;-78
2022/05/19 04:18:20;;;;;;;40.58;33.40;;;15.40;99.90;;;;;;4921818;29;20048;-78
2022/05/19 04:20:49;;;;;;;34.33;29.58;;;15.50;99.90;;;;;;4938008;29;20391;-78
2022/05/19 04:23:17;;;;;;;38.05;32.15;;;15.60;99.90;;;;;;4937851;29;20398;-78
2022/05/19 04:25:43;;;;;;;36.53;30.65;;;15.70;99.90;;;;;;4937681;28;20486;-78
2022/05/19 04:28:11;;;;;;;36.55;31.63;;;15.80;99.90;;;;;;4922118;29;20042;-78
2022/05/19 04:30:37;;;;;;;36.15;31.58;;;15.80;99.90;;;;;;4938204;29;20053;-78
2022/05/19 04:33:03;;;;;;;35.60;31.40;;;15.90;99.90;;;;;;4937618;29;20429;-78
2022/05/19 04:35:30;;;;;;;35.95;31.30;;;15.90;99.90;;;;;;4922314;29;20054;-78
2022/05/19 04:37:57;;;;;;;36.15;30.15;;;15.90;99.90;;;;;;4937832;29;20426;-79
2022/05/19 04:40:23;;;;;;;36.80;30.27;;;16.00;99.90;;;;;;4937747;28;20480;-80
2022/05/19 04:42:49;;;;;;;37.20;31.65;;;16.00;99.90;;;;;;4921284;29;20043;-79
2022/05/19 04:45:17;;;;;;;35.38;31.17;;;16.10;99.90;;;;;;4936729;29;20039;-79
2022/05/19 04:47:43;;;;;;;33.15;29.63;;;16.10;99.90;;;;;;4936677;29;20102;-78
2022/05/19 04:50:10;;;;;;;34.90;31.08;;;16.20;99.90;;;;;;4936312;29;20043;-80
2022/05/19 04:52:36;;;;;;;36.05;32.03;;;16.30;99.90;;;;;;4936258;29;20109;-78
2022/05/19 04:55:03;;;;;;;33.72;30.15;;;16.40;99.90;;;;;;4936320;28;20141;-78
2022/05/19 04:57:29;;;;;;;34.17;30.50;;;16.50;99.90;;;;;;4920713;29;20458;-78
2022/05/19 04:59:55;;;;;;;35.85;30.30;;;16.70;99.90;;;;;;4920296;29;20186;-78
2022/05/19 05:02:21;;;;;;;32.17;28.73;;;16.80;99.90;;;;;;4936094;29;20043;-78
2022/05/19 05:04:46;;;;;;;33.58;27.75;;;16.90;99.90;;;;;;4936151;28;20493;-79
2022/05/19 05:07:12;;;;;;;31.33;27.17;;;17.10;99.90;;;;;;4919851;29;20035;-79
2022/05/19 05:09:38;;;;;;;30.40;27.25;;;17.30;99.90;;;;;;4920311;28;20050;-79
2022/05/19 05:12:04;;;;;;;31.30;27.98;;;17.50;99.90;;;;;;4936386;29;20047;-81
2022/05/19 05:14:30;;;;;;;29.48;26.27;;;17.70;99.90;;;;;;4920720;29;20130;-79
2022/05/19 05:16:56;;;;;;;28.35;25.35;;;18.00;99.90;;;;;;4920580;29;20469;-81
2022/05/19 05:19:24;;;;;;;26.70;22.95;;;18.20;99.90;;;;;;4920112;29;20047;-78
2022/05/19 05:21:58;;;;;;;27.27;24.33;;;18.40;99.90;;;;;;4920453;29;20039;-79
2022/05/19 05:24:28;;;;;;;23.65;21.15;;;18.50;99.90;;;;;;4920681;29;20049;-79
2022/05/19 05:26:53;;;;;;;22.80;20.40;;;18.70;99.90;;;;;;4920570;29;20039;-79
2022/05/19 05:29:22;;;;;;;19.70;17.83;;;18.90;99.90;;;;;;4920136;29;20122;-78
2022/05/19 05:31:51;;;;;;;19.83;17.67;;;19.00;99.90;;;;;;4920538;29;20446;-79
2022/05/19 05:34:17;;;;;;;18.58;16.77;;;19.20;99.90;;;;;;4920345;29;20467;-78
2022/05/19 05:36:43;;;;;;;16.75;14.73;;;19.40;99.90;;;;;;4935913;28;20090;-78
2022/05/19 05:39:09;;;;;;;15.77;14.10;;;19.50;99.90;;;;;;4935918;29;20047;-78
2022/05/19 05:41:35;;;;;;;13.63;12.23;;;19.50;99.90;;;;;;4936218;29;20035;-78
2022/05/19 05:44:01;;;;;;;12.25;10.80;;;19.60;99.90;;;;;;4920365;29;20047;-78
2022/05/19 05:46:27;;;;;;;10.57;9.57;;;19.40;99.90;;;;;;4920053;29;20079;-79
2022/05/19 05:48:53;;;;;;;11.70;9.57;;;19.50;99.90;;;;;;4919919;29;20043;-81
2022/05/19 05:51:21;;;;;;;9.70;8.23;;;19.50;99.90;;;;;;4936514;28;20043;-79
2022/05/19 05:53:47;;;;;;;8.27;7.28;;;19.70;99.90;;;;;;4920616;29;20039;-78
2022/05/19 05:56:16;;;;;;;8.18;7.05;;;19.60;99.90;;;;;;4935995;29;20530;-79
2022/05/19 05:58:44;;;;;;;8.52;6.53;;;19.70;99.90;;;;;;4936398;29;20126;-78
2022/05/19 06:01:12;;;;;;;6.88;5.90;;;19.70;99.90;;;;;;4951911;28;20054;-79
2022/05/19 06:03:38;;;;;;;6.35;4.75;;;19.70;99.90;;;;;;4919465;28;20130;-79
2022/05/19 06:06:05;;;;;;;5.78;4.35;;;19.80;99.90;;;;;;4920145;29;20032;-77
2022/05/19 06:08:31;;;;;;;4.68;3.78;;;19.70;99.90;;;;;;4935608;29;20050;-77
2022/05/19 06:10:59;;;;;;;6.80;3.80;;;19.80;99.90;;;;;;4919953;29;20050;-77
2022/05/19 06:13:25;;;;;;;6.22;3.45;;;19.80;99.90;;;;;;4935738;29;20039;-80
2022/05/19 06:15:52;;;;;;;4.55;3.10;;;20.10;99.90;;;;;;4935937;29;20117;-77
2022/05/19 06:18:18;;;;;;;5.88;3.03;;;20.40;99.90;;;;;;4920988;28;20043;-78
2022/05/19 06:20:44;;;;;;;4.25;2.45;;;20.60;99.90;;;;;;4923536;29;20130;-77
2022/05/19 06:23:16;;;;;;;3.80;2.53;;;20.80;99.90;;;;;;4939327;29;20050;-79
2022/05/19 06:25:42;;;;;;;4.47;2.50;;;21.00;99.90;;;;;;4923529;29;20062;-78
2022/05/19 06:28:11;;;;;;;3.42;2.35;;;21.10;99.90;;;;;;4923179;29;20050;-77
2022/05/19 06:30:38;;;;;;;5.15;2.72;;;21.10;99.90;;;;;;4922609;28;20055;-77
2022/05/19 06:33:05;;;;;;;4.03;2.30;;;21.00;99.90;;;;;;4923153;29;20043;-77
2022/05/19 06:35:32;;;;;;;4.28;2.78;;;20.90;99.90;;;;;;4923122;29;20516;-76
2022/05/19 06:37:59;;;;;;;3.70;3.05;;;20.90;99.90;;;;;;4922965;29;20043;-78
2022/05/19 06:40:29;;;;;;;3.65;2.80;;;20.70;99.90;;;;;;4922988;29;20043;-79
2022/05/19 06:42:55;;;;;;;3.38;2.60;;;20.70;99.90;;;;;;4954767;28;20051;-79
2022/05/19 06:45:25;;;;;;;4.55;2.95;;;20.60;99.90;;;;;;4922816;28;20046;-79
2022/05/19 06:47:51;;;;;;;4.70;3.25;;;20.40;99.90;;;;;;4938964;29;20043;-79
2022/05/19 06:50:18;;;;;;;3.15;2.80;;;20.30;99.90;;;;;;4923380;29;20052;-79
2022/05/19 06:53:01;;;;;;;4.65;3.08;;;20.20;99.90;;;;;;4923033;29;20495;-78
2022/05/19 06:55:32;;;;;;;4.18;3.40;;;20.10;99.90;;;;;;4923093;29;20051;-79
2022/05/19 06:57:58;;;;;;;3.00;2.70;;;20.00;99.90;;;;;;4938510;28;20062;-79
2022/05/19 07:00:26;;;;;;;2.97;2.67;;;20.00;99.90;;;;;;4922748;29;20074;-78
2022/05/19 07:02:55;;;;;;;4.53;2.83;;;19.90;99.90;;;;;;4954521;28;20043;-78
2022/05/19 07:05:24;;;;;;;5.20;2.92;;;19.90;99.90;;;;;;4922665;29;20036;-78
2022/05/19 07:07:51;;;;;;;3.25;2.60;;;19.80;99.90;;;;;;4922624;29;20043;-80
2022/05/19 07:10:21;;;;;;;5.55;3.05;;;19.70;99.90;;;;;;4938417;28;20039;-78
2022/05/19 07:12:48;;;;;;;3.97;2.92;;;19.60;99.90;;;;;;4922371;29;20043;-79
2022/05/19 07:15:16;;;;;;;3.40;2.72;;;19.60;99.90;;;;;;4938455;29;20398;-79
2022/05/19 07:17:42;;;;;;;3.95;3.17;;;19.50;99.90;;;;;;4922380;29;20039;-79
2022/05/19 07:22:54;;;;;;;4.88;3.33;;;19.40;99.90;;;;;;4954345;28;20047;-79
2022/05/19 07:25:21;;;;;;;4.13;3.35;;;19.40;99.90;;;;;;4922754;29;20040;-79
2022/05/19 07:27:47;;;;;;;4.07;3.05;;;19.40;99.90;;;;;;4938126;29;20035;-79
2022/05/19 07:30:14;;;;;;;4.13;3.28;;;19.40;99.90;;;;;;4938053;29;20043;-78
2022/05/19 07:32:40;;;;;;;3.65;3.10;;;19.40;99.90;;;;;;4922358;29;20074;-81
2022/05/19 07:35:08;;;;;;;5.47;2.75;;;19.40;99.90;;;;;;4922204;29;20043;-79
2022/05/19 07:37:35;;;;;;;3.70;3.10;;;19.30;99.90;;;;;;4922120;28;20475;-86
2022/05/19 07:40:01;;;;;;;3.78;3.03;;;19.30;99.90;;;;;;4938047;29;20039;-78
2022/05/19 07:42:27;;;;;;;4.13;3.10;;;19.40;99.90;;;;;;4922175;29;20039;-77
2022/05/19 07:44:52;;;;;;;4.00;3.17;;;19.40;99.90;;;;;;4937821;28;20043;-76
2022/05/19 07:47:19;;;;;;;4.28;3.13;;;19.40;99.90;;;;;;4921841;29;20047;-77
2022/05/19 07:49:46;;;;;;;3.67;3.20;;;19.30;99.90;;;;;;4921721;29;20054;-78
2022/05/19 07:52:13;;;;;;;4.47;3.92;;;19.30;99.90;;;;;;4922205;28;20137;-78
2022/05/19 07:54:39;;;;;;;3.85;3.08;;;19.40;99.90;;;;;;4937723;28;20502;-79
2022/05/19 07:57:05;;;;;;;4.20;3.40;;;19.40;99.90;;;;;;4937669;29;20130;-79
2022/05/19 07:59:32;;;;;;;3.00;2.70;;;19.40;99.90;;;;;;4937246;29;20050;-79
2022/05/19 08:01:57;;;;;;;4.32;3.20;;;19.40;99.90;;;;;;4921903;29;20189;-78
2022/05/19 08:04:26;;;;;;;3.45;2.90;;;19.50;99.90;;;;;;4921509;28;20558;-78
2022/05/19 08:06:52;;;;;;;3.83;3.08;;;19.60;99.90;;;;;;4921972;29;20082;-79
2022/05/19 08:12:04;;;;;;;4.15;3.25;;;19.80;99.90;;;;;;4953414;28;20146;-78
2022/05/19 08:17:18;;;;;;;5.47;3.33;;;20.10;99.90;;;;;;4953485;28;20133;-77
2022/05/19 08:19:45;;;;;;;5.05;3.47;;;20.20;99.90;;;;;;4921973;29;20557;-77
2022/05/19 08:22:11;;;;;;;6.03;3.38;;;20.40;99.90;;;;;;4938373;29;20050;-78
2022/05/19 08:24:37;;;;;;;5.28;3.40;;;20.40;99.90;;;;;;4922326;28;20394;-78
2022/05/19 08:27:04;;;;;;;4.60;3.25;;;20.60;99.90;;;;;;4921245;29;20074;-79
2022/05/19 08:29:30;;;;;;;4.47;3.13;;;20.80;99.90;;;;;;4920794;28;20050;-77
2022/05/19 08:31:56;;;;;;;4.57;3.40;;;21.00;99.90;;;;;;4921056;29;20047;-77
2022/05/19 08:34:22;;;;;;;5.65;3.35;;;21.10;99.90;;;;;;4921446;29;20054;-77
2022/05/19 08:36:50;;;;;;;4.18;3.55;;;21.30;99.90;;;;;;4936894;29;20047;-77
2022/05/19 08:39:18;;;;;;;5.75;3.45;;;21.40;99.90;;;;;;4920922;29;20043;-77
2022/05/19 08:42:01;;;;;;;4.32;3.10;;;21.50;99.90;;;;;;4920413;29;20103;-77
2022/05/19 08:44:34;;;;;;;3.42;2.80;;;21.60;99.90;;;;;;4920738;29;20051;-77
2022/05/19 08:47:02;;;;;;;3.60;2.55;;;21.70;99.90;;;;;;4920877;29;20077;-77
2022/05/19 08:49:38;;;;;;;3.75;2.75;;;21.80;99.90;;;;;;4952684;28;20066;-77
2022/05/19 08:52:06;;;;;;;4.43;2.60;;;21.90;99.90;;;;;;4920753;29;20581;-78
2022/05/19 08:54:33;;;;;;;2.88;2.53;;;22.20;99.90;;;;;;4936384;28;20039;-78
2022/05/19 08:57:08;;;;;;;4.18;3.13;;;22.40;99.90;;;;;;4921299;29;20121;-77
2022/05/19 08:59:48;;;;;;;3.45;2.60;;;22.80;99.90;;;;;;4952537;28;20418;-78
2022/05/19 09:02:22;;;;;;;4.18;3.20;;;23.30;99.90;;;;;;4920704;29;20195;-77
2022/05/19 09:04:59;;;;;;;;;;;23.80;99.90;;;;;;4937129;28;20462;-77
2022/05/19 09:07:58;;;;;;;3.97;3.58;;;24.10;99.90;;;;;;4952585;28;20392;-78
2022/05/19 09:10:40;;;;;;;3.85;3.10;;;24.30;99.90;;;;;;4936613;29;20043;-77
2022/05/19 09:13:22;;;;;;;4.27;3.37;;;24.60;99.90;;;;;;4936487;29;20499;-77
2022/05/19 09:15:48;;;;;;;5.18;3.20;;;25.00;99.90;;;;;;4936656;29;20054;-77
2022/05/19 09:18:18;;;;;;;4.60;3.35;;;25.30;99.90;;;;;;4920769;29;20047;-77
2022/05/19 09:20:51;;;;;;;3.90;3.50;;;25.50;99.90;;;;;;4920600;29;20043;-78
2022/05/19 09:23:18;;;;;;;5.13;3.25;;;25.90;99.90;;;;;;4920718;29;20098;-77
2022/05/19 09:26:02;;;;;;;3.90;3.00;;;26.10;99.90;;;;;;4936780;28;20090;-77
2022/05/19 09:28:29;;;;;;;4.45;2.38;;;26.00;99.90;;;;;;4920612;29;20545;-77
2022/05/19 09:30:56;;;;;;;3.30;2.65;;;26.20;99.90;;;;;;4920632;29;20051;-79
2022/05/19 09:33:32;;;;;;;3.92;2.40;;;26.50;99.90;;;;;;4920762;29;20462;-77
2022/05/19 09:35:59;;;;;;;3.45;2.65;;;26.90;99.90;;;;;;4920548;29;20047;-78
2022/05/19 09:38:37;;;;;;;3.20;2.40;;;27.40;99.90;;;;;;4920438;28;20043;-77
2022/05/19 09:41:21;;;;;;;3.20;2.10;;;28.10;99.90;;;;;;4935657;29;20047;-77
2022/05/19 09:43:55;;;;;;;3.13;2.50;;;28.70;99.80;;;;;;4920277;29;20093;-77
2022/05/19 09:46:26;;;;;;;2.92;2.50;;;29.00;98.50;;;;;;4919351;29;20181;-80
2022/05/19 09:49:06;;;;;;;2.78;2.13;;;29.10;96.20;;;;;;4920325;29;20046;-78
2022/05/19 09:51:42;;;;;;;2.53;2.33;;;29.00;95.40;;;;;;4920133;28;20097;-78
2022/05/19 09:54:12;;;;;;;3.58;2.42;;;29.00;96.20;;;;;;4924199;29;20039;-78
2022/05/19 09:56:59;;;;;;;3.55;2.40;;;29.10;97.10;;;;;;4924224;29;20486;-78
2022/05/19 09:59:49;;;;;;;3.47;2.50;;;29.00;94.10;;;;;;4923994;29;20045;-80
2022/05/19 10:02:23;;;;;;;3.20;2.50;;;28.90;93.00;;;;;;4924397;29;20038;-78
2022/05/19 10:04:55;;;;;;;3.13;1.92;;;28.80;94.80;;;;;;4939550;28;20503;-78
2022/05/19 10:07:24;;;;;;;4.47;2.23;;;28.80;91.80;;;;;;4939810;28;20035;-78
2022/05/19 10:09:57;;;;;;;3.60;2.05;;;28.80;93.30;;;;;;4923954;29;20505;-78
2022/05/19 10:12:30;;;;;;;2.92;2.38;;;29.00;93.30;;;;;;4939947;29;20134;-78
2022/05/19 10:15:11;;;;;;;3.22;2.35;;;29.20;91.20;;;;;;4939463;28;20046;-81
2022/05/19 10:18:15;;;;;;;3.08;2.25;;;29.40;89.70;;;;;;4939409;28;20429;-77
2022/05/19 10:21:02;;;;;;;3.60;2.50;;;29.50;91.50;;;;;;4955664;28;20409;-81
2022/05/19 10:23:58;;;;;;;3.03;2.53;;;29.70;90.30;;;;;;4923989;29;20090;-80
2022/05/19 10:26:27;;;;;;;2.47;2.28;;;30.20;86.50;;;;;;4923811;28;20043;-81
2022/05/19 10:32:29;;;;;;;3.28;2.90;;;30.50;80.40;;;;;;4955561;28;20046;-78
2022/05/19 10:35:32;;;;;;;4.28;3.33;;;30.50;82.40;;;;;;4923183;28;20186;-78
2022/05/19 10:38:27;;;;;;;6.07;3.72;;;30.80;74.50;;;;;;4938857;29;20054;-81
2022/05/19 10:41:05;;;;;;;3.60;3.30;;;31.20;71.10;;;;;;4939105;28;20134;-77
2022/05/19 10:43:48;;;;;;;3.33;3.03;;;31.60;62.10;;;;;;4923578;29;20054;-78
2022/05/19 10:46:20;;;;;;;2.83;2.47;;;31.60;59.90;;;;;;4939075;29;20050;-77
2022/05/19 10:49:24;;;;;;;4.05;2.72;;;31.70;63.80;;;;;;4938406;29;20050;-78
2022/05/19 10:52:08;;;;;;;3.03;2.65;;;31.90;60.30;;;;;;4910744;29;20065;-78
2022/05/19 10:55:11;;;;;;;3.05;2.60;;;32.40;62.50;;;;;;4955131;28;20506;-78
2022/05/19 10:57:46;;;;;;;2.60;2.40;;;32.70;53.40;;;;;;4938921;28;20419;-78
2022/05/19 11:00:30;;;;;;;2.70;2.50;;;32.80;55.40;;;;;;4938893;29;20125;-79
2022/05/19 11:03:02;;;;;;;2.47;2.17;;;33.10;55.80;;;;;;4922961;29;20529;-78
2022/05/19 11:05:39;;;;;;;2.53;2.33;;;33.20;55.70;;;;;;4937735;29;20186;-79
2022/05/19 11:08:20;;;;;;;3.53;2.35;;;33.20;53.50;;;;;;4938835;29;20043;-78
2022/05/19 11:10:58;;;;;;;3.03;2.50;;;33.30;52.60;;;;;;4938583;29;20410;-79
2022/05/19 11:13:51;;;;;;;2.40;1.90;;;33.50;53.40;;;;;;4922924;29;20083;-79
2022/05/19 11:16:26;;;;;;;;;;;33.70;51.30;;;;;;4938973;28;20061;-78
2022/05/19 11:19:02;;;;;;;3.08;2.47;;;33.70;49.10;;;;;;4954518;28;19942;-78
2022/05/19 11:21:37;;;;;;;2.28;2.08;;;33.60;50.50;;;;;;4938553;29;20130;-79
2022/05/19 11:26:23;;;;;;;2.08;1.88;;;33.60;49.60;;;;;;4922891;29;20042;-80
2022/05/19 11:27:34;;;;;;;3.97;2.40;;;33.60;47.10;;;;;;4937565;29;20456;-79
2022/05/19 11:30:09;;;;;;;2.90;2.60;;;33.60;49.70;;;;;;4922512;29;20039;-78
2022/05/19 11:32:38;;;;;;;3.00;2.60;;;33.80;48.90;;;;;;4922598;29;20047;-80
2022/05/19 11:35:15;;;;;;;2.58;2.38;;;34.00;49.50;;;;;;4922140;28;20042;-78
2022/05/19 11:38:20;;;;;;;3.13;2.83;;;34.00;49.40;;;;;;4921982;29;20039;-78
2022/05/19 11:41:06;;;;;;;3.35;3.05;;;33.90;46.70;;;;;;4938151;29;20178;-78
2022/05/19 11:43:55;;;;;;;2.97;2.70;;;33.50;48.70;;;;;;4938030;29;20039;-78
2022/05/19 11:46:34;;;;;;;3.33;3.03;;;33.10;49.90;;;;;;4937654;29;20570;-78
2022/05/19 11:55:39;;;;;;;3.75;3.38;;;31.20;52.20;;;;;;4953784;28;20087;-78
2022/05/19 11:58:24;;;;;;;3.40;3.10;;;30.70;54.10;;;;;;4922641;29;20086;-78
2022/05/19 12:00:55;;;;;;;4.18;3.40;;;30.40;56.60;;;;;;4922337;29;20402;-78
2022/05/19 12:03:46;;;;;;;5.32;3.42;;;30.00;58.70;;;;;;4938711;29;20537;-81
2022/05/19 12:06:26;;;;;;;3.83;3.00;;;29.70;60.00;;;;;;4922104;28;20496;-78
2022/05/19 12:09:13;;;;;;;3.13;2.90;;;29.40;62.40;;;;;;4921193;29;20052;-78
2022/05/19 12:11:46;;;;;;;4.13;3.13;;;29.00;68.80;;;;;;4937633;29;20135;-79
2022/05/19 12:14:24;;;;;;;3.00;2.70;;;28.60;68.70;;;;;;4937229;29;20047;-78
2022/05/19 12:17:03;;;;;;;3.13;2.80;;;28.20;68.70;;;;;;4936679;29;20122;-78
2022/05/19 12:19:33;;;;;;;3.50;3.20;;;27.80;69.90;;;;;;4937108;29;20083;-78
2022/05/19 12:22:00;;;;;;;4.53;3.22;;;27.50;76.30;;;;;;4921402;29;20062;-78
2022/05/19 12:24:50;;;;;;;3.90;3.10;;;27.20;83.10;;;;;;4921456;29;20078;-78
2022/05/19 12:27:19;;;;;;;4.22;3.13;;;27.00;90.00;;;;;;4921478;29;20054;-78
2022/05/19 12:33:16;;;;;;;3.33;3.03;;;26.50;92.60;;;;;;4953264;28;20078;-78
2022/05/19 12:35:52;;;;;;;3.22;2.83;;;26.20;92.90;;;;;;4953184;28;20129;-79
2022/05/19 12:38:33;;;;;;;9.40;4.45;;;25.80;96.10;;;;;;4921076;29;20044;-81
2022/05/19 12:41:14;;;;;;;5.07;3.63;;;25.40;99.90;;;;;;4938465;29;20138;-81
2022/05/19 12:44:00;;;;;;;6.53;4.53;;;24.80;99.90;;;;;;4937112;29;20515;-81
2022/05/19 12:46:38;;;;;;;5.57;5.03;;;23.90;99.90;;;;;;4914619;29;20051;-80
2022/05/19 12:49:26;;;;;;;4.70;4.30;;;23.40;99.90;;;;;;4937073;29;20419;-82
2022/05/19 12:52:31;;;;;;;5.78;4.38;;;22.90;99.90;;;;;;4921590;29;20047;-83
2022/05/19 12:55:35;;;;;;;6.38;4.35;;;22.50;99.90;;;;;;4932330;29;20043;-80
2022/05/19 12:58:41;;;;;;;5.05;4.38;;;22.00;99.90;;;;;;4953946;28;20569;-80
2022/05/19 13:01:51;;;;;;;6.43;4.45;;;21.40;99.90;;;;;;4953958;28;20058;-81
2022/05/19 13:05:06;;;;;;;6.45;5.57;;;21.10;99.90;;;;;;4955549;28;20047;-80
2022/05/19 13:08:29;;;;;;;6.60;5.85;;;20.70;99.90;;;;;;4935293;28;20107;-81
2022/05/19 13:14:47;;;;;;;8.27;4.85;;;19.90;99.90;;;;;;4945940;29;20777;-79
2022/05/19 13:17:43;;;;;;;6.22;4.25;;;19.50;99.90;;;;;;4921812;29;20520;-79
2022/05/19 13:20:32;;;;;;;4.85;3.80;;;19.10;99.90;;;;;;4920397;29;20055;-79
2022/05/19 13:23:09;;;;;;;10.75;4.28;;;18.90;99.90;;;;;;4921415;29;20067;-80
2022/05/19 13:25:46;;;;;;;6.15;4.18;;;18.70;99.90;;;;;;4920867;29;20075;-79
2022/05/19 13:31:06;;;;;;;6.95;3.97;;;18.50;99.90;;;;;;4952308;28;20051;-79
2022/05/19 13:33:40;;;;;;;12.15;5.07;;;18.30;99.90;;;;;;4920433;28;20513;-79
2022/05/19 13:36:11;;;;;;;5.22;4.22;;;18.20;99.90;;;;;;4920525;29;20046;-79